Time;durP1;ratioP1;P1;durP2;ratioP2;P2;SDS_P1;SDS_P2;PMS_P1;PMS_P2;Temp;Humidity;BMP_temperature;BMP_pressure;BME280_temperature;BME280_humidity;BME280_pressure;Samples;Min_cycle;Max_cycle;Signal;HPM_P1;HPM_P2
2022/06/11 00:09:23;;;;;;;40.17;8.17;;;;;;;22.90;nan;101240.91;4756079;30;20424;-96
2022/06/11 00:16:43;;;;;;;41.33;8.17;;;;;;;22.93;nan;101251.50;4735833;30;20416;-96
2022/06/11 00:20:06;;;;;;;33.70;6.40;;;;;;;22.88;nan;101248.69;4706518;30;20500;-96
2022/06/11 00:23:09;;;;;;;38.20;7.50;;;;;;;22.75;nan;101236.81;4735233;30;20446;-96
2022/06/11 00:25:45;;;;;;;33.47;8.00;;;;;;;22.74;nan;101237.91;4721928;30;20497;-96
2022/06/11 00:47:13;;;;;;;40.57;8.47;;;;;;;22.62;nan;101231.66;4735089;30;20530;-96
2022/06/11 00:50:09;;;;;;;37.27;7.67;;;;;;;22.60;nan;101225.50;4750545;30;20471;-95
2022/06/11 00:53:23;;;;;;;46.73;9.13;;;;;;;22.57;nan;101220.44;4771808;30;20481;-96
2022/06/11 00:56:45;;;;;;;51.03;8.03;;;;;;;22.53;nan;101224.84;4769053;30;20883;-95
2022/06/11 01:03:19;;;;;;;45.43;8.97;;;;;;;22.33;nan;101199.53;4790480;30;20449;-96
2022/06/11 01:22:24;;;;;;;;;;;;;;;;;;;;;
2022/06/11 01:26:01;;;;;;;34.03;7.40;;;;;;;22.46;nan;101210.28;4682757;30;20468;-96
2022/06/11 01:36:57;;;;;;;46.83;10.40;;;;;;;22.36;nan;101213.78;4648743;30;20426;-96
2022/06/11 01:43:53;;;;;;;46.47;9.40;;;;;;;22.21;nan;101201.63;4658076;30;20432;-96
2022/06/11 01:54:28;;;;;;;42.93;11.30;;;;;;;21.87;nan;101193.38;4665805;30;20996;-96
2022/06/11 02:37:38;;;;;;;34.93;7.87;;;;;;;21.91;nan;101183.44;4751696;30;20478;-96
2022/06/11 02:44:06;;;;;;;24.83;7.80;;;;;;;21.91;nan;101185.38;4738047;30;20484;-96
2022/06/11 02:47:28;;;;;;;35.27;8.20;;;;;;;21.87;nan;101184.19;4734352;30;20465;-96
2022/06/11 02:50:31;;;;;;;27.37;7.50;;;;;;;21.72;nan;101168.13;4741743;30;20466;-96
2022/06/11 02:53:29;;;;;;;36.67;8.73;;;;;;;21.65;nan;101164.69;4704657;30;20590;-96
2022/06/11 02:57:02;;;;;;;42.33;8.70;;;;;;;21.72;nan;101173.69;4720966;30;20531;-96
2022/06/11 03:07:42;;;;;;;30.03;6.83;;;;;;;21.64;nan;101179.69;4719715;30;20433;-96
2022/06/11 03:17:49;;;;;;;33.73;7.10;;;;;;;21.39;nan;101155.13;4719636;30;20513;-96
2022/06/11 03:24:15;;;;;;;29.37;6.87;;;;;;;21.32;nan;101168.38;4719736;30;20493;-96
2022/06/11 03:30:45;;;;;;;36.13;6.60;;;;;;;21.38;nan;101184.88;4719219;30;20484;-96
2022/06/11 03:37:11;;;;;;;26.73;6.17;;;;;;;21.47;nan;101185.28;4737933;30;20933;-96
2022/06/11 04:38:38;;;;;;;28.57;6.33;;;;;;;21.59;nan;101204.66;4650282;30;20527;-96
2022/06/11 04:44:57;;;;;;;33.10;6.97;;;;;;;21.44;nan;101174.69;4649848;30;20437;-96
2022/06/11 05:02:42;;;;;;;39.20;7.47;;;;;;;21.45;nan;101190.28;4717675;30;21085;-95
2022/06/11 05:09:33;;;;;;;35.10;6.77;;;;;;;21.43;nan;101199.97;4789837;30;20417;-95
2022/06/11 05:20:47;;;;;;;41.07;8.23;;;;;;;21.16;nan;101183.97;4771819;30;20884;-95
2022/06/11 05:42:40;;;;;;;50.67;6.90;;;;;;;20.90;nan;101181.84;4684549;30;20478;-95
2022/06/11 06:01:14;;;;;;;29.30;7.90;;;;;;;21.18;nan;101200.34;4635031;30;20483;-95
2022/06/11 14:13:06;;;;;;;10.02;1.50;;;;;;;;;;5860654;24;20227;31
2022/06/11 15:31:20;;;;;;;5.88;0.90;;;;;;;;;;4768685;30;20281;-88
2022/06/11 15:33:48;;;;;;;3.75;1.10;;;;;;;;;;4771548;30;20227;-88
2022/06/11 15:36:15;;;;;;;4.90;1.52;;;;;;;;;;4778008;30;20268;-88
2022/06/11 15:38:51;;;;;;;12.00;1.50;;;;;;;;;;4789595;29;20287;-88
2022/06/11 15:41:29;;;;;;;9.32;1.77;;;;;;;;;;4789584;29;20616;-88
2022/06/11 15:43:57;;;;;;;8.10;1.52;;;;;;;;;;4789646;29;20597;-88
2022/06/11 15:46:31;;;;;;;3.88;0.95;;;;;;;;;;4789426;29;20229;-88
2022/06/11 15:49:35;;;;;;;8.43;1.85;;;;;;;;;;4789384;29;20213;-88
2022/06/11 15:52:13;;;;;;;5.35;1.23;;;;;;;;;;4789652;29;20583;-87
2022/06/11 16:15:48;;;;;;;5.05;1.73;;;;;;;;;;4790361;30;20642;-88
2022/06/11 16:18:29;;;;;;;2.60;1.13;;;;;;;;;;4788640;29;20356;-89
2022/06/11 16:20:57;;;;;;;6.03;1.50;;;;;;;;;;4788638;29;20301;-88
2022/06/11 16:23:26;;;;;;;7.40;1.13;;;;;;;;;;4789189;29;20224;-89
2022/06/11 16:25:54;;;;;;;9.82;1.40;;;;;;;;;;4788410;29;20263;-89
2022/06/11 16:28:23;;;;;;;11.55;1.77;;;;;;;;;;4789119;29;20214;-88
2022/06/11 16:30:51;;;;;;;20.98;1.30;;;;;;;;;;4789102;29;20267;-88
2022/06/11 16:33:19;;;;;;;6.55;1.00;;;;;;;;;;4791833;29;20238;-89
2022/06/11 16:35:49;;;;;;;6.72;1.40;;;;;;;;;;4788440;29;20238;-89
2022/06/11 16:38:30;;;;;;;11.45;2.17;;;;;;;;;;4785252;30;20288;-89
2022/06/11 16:41:10;;;;;;;13.50;1.40;;;;;;;;;;4777187;29;20214;-89
2022/06/11 16:47:20;;;;;;;6.53;1.77;;;;;;;;;;4789739;30;20646;-88
2022/06/11 16:58:40;;;;;;;18.80;4.80;;;;;;;;;;4787975;29;20248;-88
2022/06/11 17:01:10;;;;;;;15.60;4.83;;;;;;;;;;4788200;29;20223;-88
2022/06/11 17:03:38;;;;;;;13.93;4.60;;;;;;;;;;4787947;29;20214;-88
2022/06/11 17:06:06;;;;;;;16.87;5.60;;;;;;;;;;4788568;29;20214;-87
2022/06/11 17:08:40;;;;;;;20.10;5.50;;;;;;;;;;4782764;29;20214;-88
2022/06/11 17:11:09;;;;;;;17.63;5.60;;;;;;;;;;4769853;30;20210;-88
2022/06/11 17:14:02;;;;;;;20.97;6.03;;;;;;;;;;4770227;30;20455;-87
2022/06/11 17:16:36;;;;;;;20.90;5.47;;;;;;;;;;4771824;30;20253;-88
2022/06/11 17:19:08;;;;;;;27.70;6.53;;;;;;;;;;4770088;30;20479;-88
2022/06/11 17:21:41;;;;;;;22.10;6.10;;;;;;;;;;4770101;30;20471;-88
2022/06/11 17:24:16;;;;;;;20.73;6.30;;;;;;;;;;4769855;30;20455;-88
2022/06/11 17:27:11;;;;;;;20.17;6.60;;;;;;;;;;4770589;30;20497;-88
2022/06/11 17:29:39;;;;;;;22.80;5.97;;;;;;;;;;4784676;29;20803;-87
2022/06/11 17:32:09;;;;;;;23.73;6.60;;;;;;;;;;4769351;30;20544;-87
2022/06/11 17:34:36;;;;;;;21.67;7.20;;;;;;;;;;4784404;29;20943;-88
2022/06/11 17:37:13;;;;;;;22.13;6.27;;;;;;;;;;4769512;30;20518;-88
2022/06/11 17:39:41;;;;;;;19.00;6.20;;;;;;;;;;4769647;30;20499;-87
2022/06/11 17:42:09;;;;;;;16.67;5.80;;;;;;;;;;4769836;30;20962;-88
2022/06/11 17:44:41;;;;;;;27.60;7.27;;;;;;;;;;4769899;30;20447;-88
2022/06/11 17:47:10;;;;;;;20.70;6.17;;;;;;;;;;4770006;30;20479;-88
2022/06/11 17:49:39;;;;;;;24.73;8.40;;;;;;;;;;4769882;30;20444;-87
2022/06/11 17:52:12;;;;;;;28.00;7.07;;;;;;;;;;4784691;29;20455;-88
2022/06/11 17:54:39;;;;;;;22.07;7.67;;;;;;;;;;4769293;30;20470;-88
2022/06/11 17:57:07;;;;;;;26.53;8.97;;;;;;;;;;4769127;30;20459;-88
2022/06/11 17:59:34;;;;;;;22.80;6.53;;;;;;;;;;4769465;30;20898;-88
2022/06/11 18:02:02;;;;;;;29.03;8.20;;;;;;;;;;4769622;30;20459;-88
2022/06/11 18:04:32;;;;;;;28.10;6.80;;;;;;;;;;4769229;30;20458;-88
2022/06/11 18:07:01;;;;;;;22.63;7.07;;;;;;;;;;4769066;30;20959;-88
2022/06/11 18:09:33;;;;;;;23.60;6.40;;;;;;;;;;4769315;30;20504;-87
2022/06/11 18:12:01;;;;;;;23.23;6.90;;;;;;;;;;4769262;30;20451;-87
2022/06/11 18:14:29;;;;;;;25.30;7.37;;;;;;;;;;4769191;30;20543;-86
2022/06/11 18:16:57;;;;;;;22.33;6.37;;;;;;;;;;4784151;30;20513;-87
2022/06/11 18:19:24;;;;;;;24.10;6.70;;;;;;;;;;4772411;30;20499;-87
2022/06/11 18:27:24;;;;;;;23.40;6.53;;;;;;;;;;4769527;30;20458;-87
2022/06/11 18:32:57;;;;;;;37.80;9.73;;;;;;;;;;4770264;30;20480;-87
2022/06/11 18:35:25;;;;;;;24.70;7.43;;;;;;;;;;4784135;29;20505;-87
2022/06/11 18:37:52;;;;;;;25.87;7.30;;;;;;;;;;4769039;30;20823;-87
2022/06/11 18:40:23;;;;;;;23.10;7.70;;;;;;;;;;4768837;30;20491;-87
2022/06/11 18:42:50;;;;;;;26.20;7.80;;;;;;;;;;4769078;30;20948;-87
2022/06/11 18:45:19;;;;;;;35.07;8.57;;;;;;;;;;4769109;30;20463;-86
2022/06/11 18:47:50;;;;;;;16.87;7.00;;;;;;;;;;4769055;30;20515;-87
2022/06/11 18:50:18;;;;;;;24.70;6.50;;;;;;;;;;4754651;30;20448;-87
2022/06/11 18:52:47;;;;;;;25.77;8.40;;;;;;;;;;4771874;30;20800;-86
2022/06/11 18:55:15;;;;;;;41.77;10.40;;;;;;;;;;4773440;30;20467;-90
2022/06/11 18:57:43;;;;;;;32.13;9.90;;;;;;;;;;4775545;29;20487;-89
2022/06/11 19:03:26;;;;;;;32.00;9.37;;;;;;;;;;4790310;30;20455;-86
2022/06/11 19:26:44;;;;;;;33.43;9.03;;;;;;;;;;4791348;30;20556;-87
2022/06/11 19:29:12;;;;;;;30.97;7.90;;;;;;;;;;4788974;29;20503;-87
2022/06/11 19:31:46;;;;;;;34.03;9.00;;;;;;;;;;4789513;29;20447;-89
2022/06/11 19:34:16;;;;;;;36.43;8.80;;;;;;;;;;4795942;29;20458;-88
2022/06/11 19:36:57;;;;;;;29.00;8.13;;;;;;;;;;4775453;29;20457;-87
2022/06/11 19:39:26;;;;;;;45.13;9.90;;;;;;;;;;4774345;29;21014;-88
2022/06/11 19:41:54;;;;;;;44.27;10.60;;;;;;;;;;4789934;29;20455;-88
2022/06/11 19:44:25;;;;;;;38.57;10.37;;;;;;;;;;4789945;29;20530;-87
2022/06/11 19:46:54;;;;;;;44.43;10.50;;;;;;;;;;4760269;29;20514;-87
2022/06/11 19:49:23;;;;;;;53.53;11.10;;;;;;;;;;4774425;29;20462;-87
2022/06/11 19:51:51;;;;;;;41.03;9.27;;;;;;;;;;4777350;30;20480;-89
2022/06/11 19:54:22;;;;;;;32.30;9.87;;;;;;;;;;4775082;29;21213;-86
2022/06/11 19:56:53;;;;;;;46.43;10.37;;;;;;;;;;4774696;30;20954;-87
2022/06/11 19:59:21;;;;;;;41.40;10.53;;;;;;;;;;4760667;30;20487;-87
2022/06/11 20:01:49;;;;;;;28.83;9.87;;;;;;;;;;4774806;30;20962;-87
2022/06/11 20:04:16;;;;;;;36.80;10.10;;;;;;;;;;4789271;29;20969;-87
2022/06/11 20:06:44;;;;;;;33.50;10.20;;;;;;;;;;4760073;30;20520;-88
2022/06/11 20:09:12;;;;;;;37.40;9.30;;;;;;;;;;4775003;30;20504;-87
2022/06/11 20:11:39;;;;;;;32.53;9.10;;;;;;;;;;4786632;30;20442;-87
2022/06/11 20:14:07;;;;;;;38.50;9.93;;;;;;;;;;4780676;30;20463;-87
2022/06/11 20:16:35;;;;;;;47.87;10.37;;;;;;;;;;4789472;29;20512;-87
2022/06/11 20:19:03;;;;;;;43.03;9.60;;;;;;;;;;4774808;30;20523;-88
2022/06/11 20:21:32;;;;;;;34.60;7.40;;;;;;;;;;4789245;29;20447;-87
2022/06/11 20:24:00;;;;;;;35.03;8.90;;;;;;;;;;4774753;29;20550;-88
2022/06/11 20:26:27;;;;;;;46.77;8.50;;;;;;;;;;4787166;29;20904;-88
2022/06/11 20:28:55;;;;;;;36.57;8.00;;;;;;;;;;4788696;30;20463;-88
2022/06/11 20:31:24;;;;;;;36.50;8.83;;;;;;;;;;4789110;30;20805;-88
2022/06/11 20:33:54;;;;;;;32.93;7.80;;;;;;;;;;4786043;29;20491;-89
2022/06/11 20:36:22;;;;;;;24.00;6.93;;;;;;;;;;4769722;29;20451;-89
2022/06/11 20:38:51;;;;;;;30.80;8.00;;;;;;;;;;4788987;29;20485;-88
2022/06/11 20:41:20;;;;;;;30.23;7.27;;;;;;;;;;4788479;30;20550;-89
2022/06/11 20:43:47;;;;;;;32.17;7.83;;;;;;;;;;4788400;30;20466;-89
2022/06/11 21:27:51;;;;;;;38.20;8.50;;;;;;;;;;4789085;29;20429;-89
2022/06/11 21:30:20;;;;;;;34.33;7.73;;;;;;;;;;4787385;29;20486;-88
2022/06/11 21:32:49;;;;;;;44.93;8.63;;;;;;;;;;4787875;29;20467;-89
2022/06/11 21:35:18;;;;;;;39.10;9.10;;;;;;;;;;4788189;30;20477;-88
2022/06/11 21:37:48;;;;;;;38.47;7.77;;;;;;;;;;4788203;29;20853;-90
2022/06/11 21:40:16;;;;;;;35.00;8.60;;;;;;;;;;4788654;29;20523;-90
2022/06/11 21:42:47;;;;;;;48.20;8.47;;;;;;;;;;4788093;30;20445;-90
2022/06/11 21:45:30;;;;;;;48.57;7.83;;;;;;;;;;4788008;30;20954;-90
2022/06/11 21:48:11;;;;;;;33.07;7.83;;;;;;;;;;4786278;30;21016;-88
2022/06/11 21:50:39;;;;;;;31.83;7.60;;;;;;;;;;4772680;30;20451;-89
2022/06/11 21:53:07;;;;;;;30.33;7.30;;;;;;;;;;4787881;29;20516;-88
2022/06/11 21:55:35;;;;;;;42.27;9.80;;;;;;;;;;4772782;30;20459;-91
2022/06/11 21:58:14;;;;;;;52.23;9.27;;;;;;;;;;4775256;30;20469;-89
2022/06/11 22:04:51;;;;;;;;;;;;;;;;;;;;;
2022/06/11 22:15:21;;;;;;;20.80;5.50;;;;;;;;;;4752118;30;20452;-89
2022/06/11 22:22:10;;;;;;;16.70;4.43;;;;;;;;;;4680773;30;20546;-89
2022/06/11 22:25:42;;;;;;;18.20;5.90;;;;;;;;;;4680684;30;20623;-90
2022/06/11 22:29:00;;;;;;;19.90;5.97;;;;;;;;;;4663808;30;20520;-89
2022/06/11 22:39:36;;;;;;;;;;;;;;;;;;;;;
2022/06/11 22:42:58;;;;;;;;;;;;;;;;;;;;;
2022/06/11 22:46:27;;;;;;;31.73;5.93;;;;;;;;;;4613041;31;20524;-89
2022/06/11 22:52:40;;;;;;;23.83;5.67;;;;;;;;;;4595206;31;20812;-90
2022/06/11 22:59:40;;;;;;;17.00;5.07;;;;;;;;;;4687017;30;20606;-89
2022/06/11 23:31:15;;;;;;;;;;;;;;;;;;;;;
2022/06/11 23:41:20;;;;;;;20.67;5.13;;;;;;;;;;4651291;30;20872;-90
